Terminal Aerodrome Forecast
Issued by NWS Amarillo, TX

Home | Current Version | Previous Version | Text Only | Print | Product List | Glossary On
Versions: 1 2 3 4 5 6 7 8 9 10 11 12 13 14 15 16 17 18 19 20 21
000
FTUS44 KAMA 010318 AAA
TAFDHT
TAF AMD
KDHT 010318Z 0103/0124 08008KT P6SM SCT040 BKN300
      TEMPO 0106/0108 6SM -TSRA OVC015CB
     FM010800 04009KT P6SM -SHRA OVC015
     FM011800 07011KT P6SM OVC030=

USA.gov is the U.S. government's official web portal to all federal, state and local government web resources and services.